Overview Statistics Trail Chart Weather Telemetry Raw packets
 

This is the latest recevied weather packets stored in our database for station/object KC4JIR. If no packets are shown the sender has not sent any weather packets the latest 10 day(s).

<< 88 89 90 91 92 93 94 >>
Time Temp. Humidity Pressure Rain* Wind** Luminosity Snow
1787858825 27.78° C 86% 1012 hPa 0 mm - 124 W/m² -
1787858520 27.78° C 86% 1011.6 hPa 0 mm - 124 W/m² -
1787858219 27.78° C 83% 1011.4 hPa 0 mm - 557 W/m² -
1787857915 30.56° C 77% 1011.4 hPa 0 mm - 165 W/m² -
1787857611 30.56° C 77% 1011.4 hPa 0 mm - 580 W/m² -
1787857310 30° C 77% 1011.4 hPa 0 mm - 606 W/m² -
1787857009 30° C 77% 1011.4 hPa 0 mm - 606 W/m² -
1787856709 29.44° C 79% 1011.6 hPa 0 mm - 629 W/m² -
1787856403 29.44° C 79% 1011.7 hPa 0 mm - 162 W/m² -
1787856098 29.44° C 81% 1011.8 hPa 0 mm - 196 W/m² -
1787855793 28.89° C 83% 1011.8 hPa 0 mm - 91 W/m² -
1787855488 28.89° C 83% 1011.7 hPa 0 mm - 91 W/m² -
1787855184 29.44° C 85% 1011.6 hPa 0 mm - 190 W/m² -
1787854879 30° C 85% 1011.5 hPa 0 mm - 102 W/m² -
1787851839 31.67° C 71% 1012.1 hPa 0 mm - 180 W/m² -
1787851538 31.67° C 71% 1012.2 hPa 0 mm - 180 W/m² -
1787851233 31.67° C 71% 1012.3 hPa 0 mm - 180 W/m² -
1787850928 31.67° C 72% 1012.5 hPa 0 mm - 790 W/m² -
1787850625 31.67° C 72% 1012.3 hPa 0 mm - 790 W/m² -
1787850325 31.67° C 72% 1012.3 hPa 0 mm - 790 W/m² -
1787846972 30° C 83% 1013.7 hPa 0 mm - 173 W/m² -
1787846673 30° C 83% 1013.7 hPa 0 mm - 173 W/m² -
1787846367 30° C 83% 1013.7 hPa 0 mm - 173 W/m² -
1787846062 30° C 80% 1013.7 hPa 0 mm - 558 W/m² -
1787845758 29.44° C 81% 1013.7 hPa 0 mm - 602 W/m² -

* Rain latest hour (hover to see other rain measurements)
** Current wind speed in m/s (hover to see current wind gust speed)